createdAt,value
2018-12-09T00:00:14.952Z,79.72
2018-12-09T00:02:43.313Z,79.37
2018-12-09T00:05:11.636Z,79.59
2018-12-09T00:07:39.859Z,79.79
2018-12-09T00:10:08.168Z,79.97
2018-12-09T00:12:36.941Z,79.96
2018-12-09T00:15:05.497Z,79.79
2018-12-09T00:17:33.925Z,80.28
2018-12-09T00:20:02.206Z,80.58
2018-12-09T00:22:30.481Z,80.77
2018-12-09T00:24:58.811Z,79.97
2018-12-09T00:27:27.121Z,80.51
2018-12-09T00:29:55.353Z,80.45
2018-12-09T00:32:23.689Z,80.58
2018-12-09T00:34:51.976Z,80.83
2018-12-09T00:37:20.247Z,80.87
2018-12-09T00:39:48.545Z,80.19
2018-12-09T00:46:13.101Z,80.39
2018-12-09T00:48:41.346Z,80.82
2018-12-09T00:51:09.640Z,80.51
2018-12-09T00:53:37.881Z,80.51
2018-12-09T00:56:06.141Z,79.49
2018-12-09T00:58:34.430Z,80.36
2018-12-09T01:01:02.779Z,79.57
2018-12-09T01:03:31.088Z,79.70
2018-12-09T01:05:59.325Z,78.95
2018-12-09T01:08:27.540Z,79.11
2018-12-09T01:10:55.789Z,79.34
2018-12-09T01:13:24.177Z,79.88
2018-12-09T01:15:52.515Z,79.93
2018-12-09T01:18:20.779Z,79.21
2018-12-09T01:20:49.104Z,79.28
2018-12-09T01:23:17.370Z,79.99
2018-12-09T01:25:45.599Z,79.79
2018-12-09T01:28:13.936Z,80.09
2018-12-09T01:30:42.298Z,80.43
2018-12-09T01:33:10.827Z,80.79
2018-12-09T01:35:39.037Z,80.94
2018-12-09T01:38:07.372Z,79.62
2018-12-09T01:40:40.911Z,79.09
2018-12-09T01:43:09.531Z,78.52
2018-12-09T01:45:37.843Z,79.39
2018-12-09T01:48:06.169Z,79.54
2018-12-09T01:50:34.489Z,79.00
2018-12-09T01:53:14.275Z,79.43
2018-12-09T01:55:42.548Z,78.56
2018-12-09T01:58:10.963Z,78.53
2018-12-09T02:00:39.283Z,78.92
2018-12-09T02:03:07.487Z,79.46
2018-12-09T02:05:35.836Z,79.59
2018-12-09T02:08:10.995Z,79.65
2018-12-09T02:10:39.343Z,78.82
2018-12-09T02:13:07.542Z,78.83
2018-12-09T02:15:45.720Z,78.90
2018-12-09T02:18:13.946Z,79.05
2018-12-09T02:20:42.223Z,79.01
2018-12-09T02:23:10.573Z,79.07
2018-12-09T02:25:38.882Z,79.24
2018-12-09T02:28:07.141Z,78.89
2018-12-09T02:30:35.385Z,79.35
2018-12-09T02:33:03.666Z,79.80
2018-12-09T02:35:36.577Z,79.02
2018-12-09T02:38:04.830Z,78.89
2018-12-09T02:40:33.197Z,79.22
2018-12-09T02:45:35.974Z,79.25
2018-12-09T02:48:04.300Z,79.53
2018-12-09T02:50:32.639Z,79.38
2018-12-09T02:53:00.948Z,79.05
2018-12-09T02:55:29.621Z,79.12
2018-12-09T02:57:57.876Z,78.76
2018-12-09T03:00:26.073Z,77.94
2018-12-09T03:02:54.330Z,78.45
2018-12-09T03:05:22.747Z,79.05
2018-12-09T03:07:51.002Z,78.67
2018-12-09T03:10:19.288Z,78.49
2018-12-09T03:12:47.562Z,78.95
2018-12-09T03:15:21.563Z,78.37
2018-12-09T03:17:50.294Z,78.47
2018-12-09T03:20:18.505Z,78.31
2018-12-09T03:22:46.902Z,78.90
2018-12-09T03:25:15.152Z,78.55
2018-12-09T03:27:43.367Z,78.68
2018-12-09T03:30:11.659Z,78.58
2018-12-09T03:32:39.893Z,77.51
2018-12-09T03:35:08.578Z,77.83
2018-12-09T03:37:36.832Z,78.14
2018-12-09T03:40:05.430Z,77.66
2018-12-09T03:42:33.918Z,77.15
2018-12-09T03:45:02.131Z,76.69
2018-12-09T03:47:30.510Z,77.23
2018-12-09T03:49:59.764Z,77.35
2018-12-09T03:52:28.300Z,77.36
2018-12-09T03:54:56.544Z,76.88
2018-12-09T03:57:24.848Z,77.59
2018-12-09T03:59:53.136Z,76.86
2018-12-09T04:02:21.387Z,77.08
2018-12-09T04:04:49.690Z,76.89
2018-12-09T04:07:18.024Z,76.54
2018-12-09T04:09:46.241Z,77.22
2018-12-09T04:12:14.485Z,77.15
2018-12-09T04:14:42.729Z,77.51
2018-12-09T04:17:10.930Z,77.47
2018-12-09T04:19:39.234Z,77.74
2018-12-09T04:22:07.540Z,77.68
2018-12-09T04:24:35.874Z,77.77
2018-12-09T04:27:04.798Z,78.34
2018-12-09T04:29:33.038Z,77.53
2018-12-09T04:32:01.279Z,77.51
2018-12-09T04:34:29.519Z,77.84
2018-12-09T04:36:57.806Z,77.81
2018-12-09T04:39:26.368Z,78.02
2018-12-09T04:42:01.215Z,77.92
2018-12-09T04:44:29.463Z,77.65
2018-12-09T04:46:57.921Z,77.42
2018-12-09T04:49:26.439Z,77.62
2018-12-09T04:51:56.446Z,77.22
2018-12-09T04:54:25.934Z,77.18
2018-12-09T04:56:57.975Z,76.86
2018-12-09T04:59:27.054Z,77.07
2018-12-09T05:01:55.325Z,77.28
2018-12-09T05:04:23.783Z,77.12
2018-12-09T05:06:52.125Z,76.77
2018-12-09T05:09:20.405Z,77.39
2018-12-09T05:11:49.038Z,76.85
2018-12-09T05:14:17.370Z,76.94
2018-12-09T05:16:45.587Z,77.35
2018-12-09T05:19:13.804Z,77.32
2018-12-09T05:21:42.133Z,77.46
2018-12-09T05:24:10.442Z,77.32
2018-12-09T05:26:38.664Z,77.55
2018-12-09T05:29:06.924Z,77.74
2018-12-09T05:31:35.131Z,78.17
2018-12-09T05:34:03.358Z,77.64
2018-12-09T05:36:31.594Z,77.86
2018-12-09T05:38:59.806Z,77.52
2018-12-09T05:41:28.036Z,77.86
2018-12-09T05:43:56.310Z,77.67
2018-12-09T05:46:24.556Z,78.19
2018-12-09T05:48:52.778Z,77.93
2018-12-09T05:51:21.000Z,77.90
2018-12-09T05:53:49.218Z,78.05
2018-12-09T05:56:17.436Z,78.30
2018-12-09T05:58:45.714Z,78.50
2018-12-09T06:01:13.944Z,78.33
2018-12-09T06:03:42.305Z,78.59
2018-12-09T06:06:10.616Z,78.80
2018-12-09T06:08:38.866Z,78.91
2018-12-09T06:11:07.142Z,79.23
2018-12-09T06:13:35.514Z,79.15
2018-12-09T06:16:03.740Z,79.23
2018-12-09T06:18:32.061Z,79.24
2018-12-09T06:21:00.244Z,79.22
2018-12-09T06:23:28.551Z,79.19
2018-12-09T06:28:49.686Z,79.08
2018-12-09T06:34:11.024Z,79.02
2018-12-09T06:36:39.278Z,79.39
2018-12-09T06:39:07.604Z,78.90
2018-12-09T06:41:35.891Z,78.56
2018-12-09T06:44:04.202Z,78.88
2018-12-09T06:46:32.461Z,78.80
2018-12-09T06:49:00.826Z,78.61
2018-12-09T06:51:29.097Z,78.40
2018-12-09T06:53:57.426Z,78.96
2018-12-09T06:56:25.742Z,78.81
2018-12-09T06:58:53.983Z,78.52
2018-12-09T07:01:22.184Z,78.41
2018-12-09T07:03:50.435Z,78.29
2018-12-09T07:06:18.664Z,78.55
2018-12-09T07:08:47.017Z,78.54
2018-12-09T07:11:15.262Z,78.44
2018-12-09T07:13:43.499Z,78.80
2018-12-09T07:16:11.812Z,78.36
2018-12-09T07:18:40.247Z,78.32
2018-12-09T07:21:08.567Z,78.33
2018-12-09T07:23:36.861Z,78.22
2018-12-09T07:26:05.276Z,78.18
2018-12-09T07:28:33.546Z,78.44
2018-12-09T07:31:01.761Z,78.08
2018-12-09T07:33:30.167Z,78.08
2018-12-09T07:35:58.434Z,78.54
2018-12-09T07:38:26.920Z,78.40
2018-12-09T07:40:55.271Z,78.51
2018-12-09T07:43:23.654Z,78.56
2018-12-09T07:45:51.961Z,78.26
2018-12-09T07:48:20.207Z,78.64
2018-12-09T07:50:48.509Z,78.79
2018-12-09T07:53:16.757Z,78.50
2018-12-09T07:55:45.176Z,78.24
2018-12-09T07:58:13.488Z,77.91
2018-12-09T08:00:45.509Z,77.93
2018-12-09T08:03:13.714Z,77.96
2018-12-09T08:05:41.941Z,77.67
2018-12-09T08:08:10.308Z,77.86
2018-12-09T08:10:42.308Z,77.40
2018-12-09T08:13:10.546Z,77.57
2018-12-09T08:15:38.832Z,77.70
2018-12-09T08:18:07.106Z,77.38
2018-12-09T08:20:35.852Z,77.59
2018-12-09T08:23:04.398Z,77.61
2018-12-09T08:25:32.656Z,77.13
2018-12-09T08:28:00.885Z,77.21
2018-12-09T08:30:29.171Z,77.22
2018-12-09T08:32:57.403Z,77.19
2018-12-09T08:35:25.669Z,77.75
2018-12-09T08:37:53.981Z,77.56
2018-12-09T08:40:22.275Z,77.55
2018-12-09T08:42:50.639Z,77.78
2018-12-09T08:48:11.716Z,77.15
2018-12-09T08:50:39.934Z,77.19
2018-12-09T08:53:08.209Z,77.21
2018-12-09T08:55:36.599Z,77.24
2018-12-09T08:58:04.909Z,77.23
2018-12-09T09:00:33.130Z,77.03
2018-12-09T09:03:01.395Z,77.03
2018-12-09T09:05:29.710Z,76.87
2018-12-09T09:07:58.051Z,77.11
2018-12-09T09:10:26.437Z,77.41
2018-12-09T09:12:54.718Z,76.81
2018-12-09T09:15:22.945Z,77.64
2018-12-09T09:17:51.199Z,78.04
2018-12-09T09:20:19.392Z,78.07
2018-12-09T09:22:47.635Z,78.35
2018-12-09T09:25:15.913Z,78.59
2018-12-09T09:27:44.269Z,77.77
2018-12-09T09:30:12.610Z,78.01
2018-12-09T09:32:40.989Z,78.39
2018-12-09T09:35:09.558Z,78.69
2018-12-09T09:37:37.754Z,78.36
2018-12-09T09:40:07.824Z,78.84
2018-12-09T09:42:36.119Z,78.50
2018-12-09T09:45:05.259Z,78.56
2018-12-09T09:47:33.502Z,78.53
2018-12-09T09:50:01.762Z,78.43
2018-12-09T09:52:30.038Z,78.14
2018-12-09T09:54:58.282Z,78.20
2018-12-09T09:57:26.614Z,77.71
2018-12-09T09:59:54.872Z,77.63
2018-12-09T10:02:23.219Z,76.26
2018-12-09T10:04:51.489Z,76.49
2018-12-09T10:07:19.861Z,76.54
2018-12-09T10:09:48.117Z,76.93
2018-12-09T10:12:17.167Z,76.10
2018-12-09T10:14:45.646Z,76.10
2018-12-09T10:17:13.903Z,76.52
2018-12-09T10:19:42.636Z,75.86
2018-12-09T10:22:27.339Z,75.95
2018-12-09T10:24:55.852Z,76.25
2018-12-09T10:27:24.095Z,75.78
2018-12-09T10:29:52.344Z,76.01
2018-12-09T10:35:13.783Z,76.21
2018-12-09T10:37:42.091Z,76.19
2018-12-09T10:40:10.340Z,76.53
2018-12-09T10:42:38.610Z,76.85
2018-12-09T10:45:07.017Z,77.94
2018-12-09T10:47:35.271Z,78.50
2018-12-09T10:50:03.670Z,78.93
2018-12-09T10:52:31.966Z,78.63
2018-12-09T10:57:52.784Z,78.37
2018-12-09T11:00:26.616Z,77.82
2018-12-09T11:02:54.851Z,78.22
2018-12-09T11:05:23.070Z,78.17
2018-12-09T11:07:51.289Z,78.62
2018-12-09T11:10:19.662Z,78.51
2018-12-09T11:12:47.968Z,77.66
2018-12-09T11:15:16.194Z,77.24
2018-12-09T11:17:44.438Z,77.33
2018-12-09T11:20:12.684Z,78.00
2018-12-09T11:22:42.912Z,77.64
2018-12-09T11:25:11.299Z,77.96
2018-12-09T11:27:39.560Z,77.57
2018-12-09T11:30:08.344Z,78.25
2018-12-09T11:32:36.591Z,76.17
2018-12-09T11:35:05.499Z,75.19
2018-12-09T11:37:33.845Z,75.68
2018-12-09T11:40:02.087Z,75.98
2018-12-09T11:42:30.415Z,76.51
2018-12-09T11:44:58.697Z,76.75
2018-12-09T11:47:27.026Z,76.43
2018-12-09T11:49:55.285Z,75.88
2018-12-09T11:52:23.743Z,75.84
2018-12-09T11:54:52.153Z,75.12
2018-12-09T11:57:20.533Z,75.61
2018-12-09T11:59:51.259Z,75.88
2018-12-09T12:02:20.073Z,76.20
2018-12-09T12:04:48.512Z,76.41
2018-12-09T12:07:16.743Z,76.68
2018-12-09T12:09:45.057Z,76.63
2018-12-09T12:12:13.531Z,77.02
2018-12-09T12:14:41.785Z,76.25
2018-12-09T12:17:10.142Z,76.41
2018-12-09T12:19:38.363Z,76.02
2018-12-09T12:24:59.458Z,76.70
2018-12-09T12:27:27.686Z,76.68
2018-12-09T12:32:48.638Z,77.09
2018-12-09T12:35:16.888Z,76.91
2018-12-09T12:37:45.162Z,77.39
2018-12-09T12:40:13.433Z,76.73
2018-12-09T12:42:41.664Z,75.03
2018-12-09T12:45:10.038Z,74.89
2018-12-09T12:47:38.363Z,75.57
2018-12-09T12:50:06.747Z,76.64
2018-12-09T12:52:35.091Z,77.23
2018-12-09T12:55:03.495Z,77.29
2018-12-09T12:57:31.807Z,77.05
2018-12-09T13:00:00.026Z,77.52
2018-12-09T13:02:28.439Z,76.99
2018-12-09T13:04:56.710Z,74.21
2018-12-09T13:07:24.953Z,74.40
2018-12-09T13:09:53.443Z,73.72
2018-12-09T13:12:21.665Z,72.97
2018-12-09T13:14:49.938Z,72.65
2018-12-09T13:17:18.175Z,72.94
2018-12-09T13:19:46.408Z,72.66
2018-12-09T13:22:14.842Z,72.84
2018-12-09T13:24:43.110Z,73.26
2018-12-09T13:27:11.455Z,73.07
2018-12-09T13:29:39.799Z,73.33
2018-12-09T13:32:08.031Z,73.60
2018-12-09T13:34:36.334Z,74.03
2018-12-09T13:37:04.571Z,74.01
2018-12-09T13:39:32.815Z,73.89
2018-12-09T13:42:01.048Z,73.75
2018-12-09T13:44:29.282Z,73.69
2018-12-09T13:46:57.744Z,74.16
2018-12-09T13:49:26.054Z,74.37
2018-12-09T13:51:54.369Z,74.14
2018-12-09T13:54:22.615Z,74.25
2018-12-09T13:56:50.885Z,74.47
2018-12-09T13:59:19.136Z,74.91
2018-12-09T14:01:47.351Z,75.25
2018-12-09T14:04:15.724Z,74.90
2018-12-09T14:06:43.993Z,75.27
2018-12-09T14:09:12.307Z,75.14
2018-12-09T14:11:40.715Z,74.80
2018-12-09T14:14:08.997Z,75.13
2018-12-09T14:16:37.500Z,75.35
2018-12-09T14:19:05.856Z,74.75
2018-12-09T14:21:34.119Z,73.95
2018-12-09T14:24:02.419Z,74.33
2018-12-09T14:26:30.661Z,73.78
2018-12-09T14:28:59.607Z,73.34
2018-12-09T14:31:29.832Z,73.57
2018-12-09T14:33:58.066Z,73.73
2018-12-09T14:36:26.428Z,73.52
2018-12-09T14:38:54.694Z,73.40
2018-12-09T14:41:23.082Z,73.14
2018-12-09T14:43:51.378Z,73.18
2018-12-09T14:46:19.619Z,73.36
2018-12-09T14:48:47.923Z,72.96
2018-12-09T14:51:16.185Z,73.22
2018-12-09T14:53:44.648Z,73.61
2018-12-09T14:56:12.916Z,73.97
2018-12-09T14:58:41.192Z,74.18
2018-12-09T15:01:09.565Z,74.37
2018-12-09T15:06:30.424Z,74.17
2018-12-09T15:08:58.803Z,74.42
2018-12-09T15:11:27.276Z,74.87
2018-12-09T15:16:48.135Z,73.87
2018-12-09T15:22:09.367Z,73.37
2018-12-09T15:24:41.433Z,73.42
2018-12-09T15:27:07.944Z,73.35
2018-12-09T15:29:36.335Z,73.34
2018-12-09T15:34:57.982Z,72.22
2018-12-09T15:37:26.257Z,72.29
2018-12-09T15:39:54.534Z,72.90
2018-12-09T15:42:22.774Z,72.41
2018-12-09T15:44:51.093Z,72.09
2018-12-09T15:47:19.481Z,72.07
2018-12-09T15:49:47.718Z,71.53
2018-12-09T15:52:16.068Z,71.47
2018-12-09T15:54:44.389Z,71.43
2018-12-09T15:57:12.617Z,71.84
2018-12-09T15:59:40.906Z,70.94
2018-12-09T16:02:09.269Z,71.07
2018-12-09T16:07:30.172Z,69.69
2018-12-09T16:09:58.528Z,70.00
2018-12-09T16:12:26.810Z,70.20
2018-12-09T16:14:55.109Z,69.75
2018-12-09T16:17:23.377Z,69.30
2018-12-09T16:19:51.681Z,69.83
2018-12-09T16:22:19.930Z,69.50
2018-12-09T16:24:48.397Z,70.46
2018-12-09T16:27:16.638Z,70.76
2018-12-09T16:29:45.032Z,70.44
2018-12-09T16:32:13.383Z,70.85
2018-12-09T16:34:41.846Z,70.37
2018-12-09T16:37:10.161Z,69.45
2018-12-09T16:39:38.435Z,69.43
2018-12-09T16:42:06.783Z,69.60
2018-12-09T16:44:35.254Z,69.77
2018-12-09T16:47:03.590Z,69.77
2018-12-09T16:49:31.897Z,70.58
2018-12-09T16:52:00.159Z,69.87
2018-12-09T16:54:28.441Z,70.82
2018-12-09T16:56:56.812Z,69.26
2018-12-09T16:59:25.113Z,69.84
2018-12-09T17:01:53.358Z,70.03
2018-12-09T17:04:21.639Z,69.64
2018-12-09T17:06:49.964Z,69.74
2018-12-09T17:09:18.242Z,68.98
2018-12-09T17:14:39.270Z,69.52
2018-12-09T17:17:08.383Z,68.22
2018-12-09T17:19:37.778Z,68.24
2018-12-09T17:22:06.227Z,68.68
2018-12-09T17:26:13.078Z,69.26
2018-12-09T17:28:41.351Z,70.43
2018-12-09T17:31:09.718Z,71.35
2018-12-09T17:33:46.108Z,72.28
2018-12-09T17:36:14.396Z,72.31
2018-12-09T17:38:42.709Z,72.37
2018-12-09T17:41:10.972Z,73.15
2018-12-09T17:43:39.347Z,72.52
2018-12-09T17:46:07.600Z,72.21
2018-12-09T17:48:39.288Z,71.99
2018-12-09T17:51:07.575Z,70.63
2018-12-09T17:53:35.824Z,70.06
2018-12-09T17:56:04.171Z,69.75
2018-12-09T17:58:32.517Z,69.03
2018-12-09T18:01:00.755Z,68.69
2018-12-09T18:03:29.289Z,68.70
2018-12-09T18:05:58.376Z,68.92
2018-12-09T18:08:27.408Z,68.25
2018-12-09T18:10:56.581Z,67.00
2018-12-09T18:13:25.341Z,67.69
2018-12-09T18:16:01.057Z,68.01
2018-12-09T18:18:29.300Z,67.54
2018-12-09T18:20:59.083Z,66.92
2018-12-09T18:23:27.376Z,66.24
2018-12-09T18:25:55.650Z,66.22
2018-12-09T18:28:23.935Z,65.62
2018-12-09T18:30:52.479Z,64.96
2018-12-09T18:33:20.946Z,64.58
2018-12-09T18:35:49.335Z,64.38
2018-12-09T18:38:17.702Z,64.67
2018-12-09T18:40:46.207Z,65.06
2018-12-09T18:43:14.554Z,65.14
2018-12-09T18:45:43.012Z,65.06
2018-12-09T18:48:11.590Z,64.66
2018-12-09T18:50:39.889Z,65.00
2018-12-09T18:53:08.258Z,64.61
2018-12-09T18:55:36.544Z,65.23
2018-12-09T18:58:05.360Z,64.85
2018-12-09T19:00:33.773Z,65.15
2018-12-09T19:03:02.075Z,65.70
2018-12-09T19:05:30.368Z,65.33
2018-12-09T19:07:58.767Z,65.67
2018-12-09T19:10:27.037Z,65.83
2018-12-09T19:12:55.385Z,65.51
2018-12-09T19:15:23.668Z,65.48
2018-12-09T19:17:51.924Z,65.32
2018-12-09T19:20:20.294Z,65.44
2018-12-09T19:22:48.606Z,65.93
2018-12-09T19:25:16.854Z,66.02
2018-12-09T19:27:45.217Z,66.05
2018-12-09T19:30:13.518Z,65.87
2018-12-09T19:32:41.934Z,66.99
2018-12-09T19:35:10.283Z,67.52
2018-12-09T19:40:31.549Z,67.48
2018-12-09T19:42:59.987Z,67.67
2018-12-09T19:48:21.449Z,67.48
2018-12-09T19:50:49.832Z,67.56
2018-12-09T19:53:18.364Z,67.02
2018-12-09T19:55:46.778Z,67.37
2018-12-09T19:58:25.743Z,66.98
2018-12-09T20:00:54.233Z,67.82
2018-12-09T20:03:39.108Z,67.21
2018-12-09T20:06:07.629Z,66.46
2018-12-09T20:08:36.017Z,66.44
2018-12-09T20:11:04.455Z,65.53
2018-12-09T20:13:32.976Z,65.50
2018-12-09T20:16:01.258Z,65.18
2018-12-09T20:21:22.532Z,64.97
2018-12-09T20:23:50.818Z,64.60
2018-12-09T20:26:19.112Z,64.23
2018-12-09T20:28:47.500Z,64.45
2018-12-09T20:31:16.021Z,64.12
2018-12-09T20:33:44.534Z,64.74
2018-12-09T20:36:12.886Z,64.97
2018-12-09T20:38:41.282Z,64.80
2018-12-09T20:41:09.865Z,64.89
2018-12-09T20:43:38.314Z,65.08
2018-12-09T20:46:06.713Z,65.31
2018-12-09T20:48:35.189Z,65.30
2018-12-09T20:51:03.780Z,65.67
2018-12-09T20:53:36.152Z,66.11
2018-12-09T20:56:04.509Z,66.17
2018-12-09T20:58:47.778Z,65.96
2018-12-09T21:01:16.306Z,65.81
2018-12-09T21:03:44.799Z,65.77
2018-12-09T21:06:13.349Z,65.44
2018-12-09T21:08:54.514Z,65.13
2018-12-09T21:11:22.933Z,64.83
2018-12-09T21:13:51.184Z,64.15
2018-12-09T21:16:19.506Z,63.71
2018-12-09T21:18:47.764Z,63.40
2018-12-09T21:21:16.061Z,63.03
2018-12-09T21:23:44.410Z,63.14
2018-12-09T21:26:12.833Z,63.11
2018-12-09T21:28:41.157Z,63.37
2018-12-09T21:31:09.498Z,63.33
2018-12-09T21:33:37.775Z,63.91
2018-12-09T21:36:06.089Z,64.49
2018-12-09T21:38:34.719Z,64.51
2018-12-09T21:41:02.996Z,64.45
2018-12-09T21:43:31.448Z,64.90
2018-12-09T21:45:59.801Z,65.23
2018-12-09T21:48:28.113Z,65.26
2018-12-09T21:50:56.502Z,65.13
2018-12-09T21:53:24.900Z,65.43
2018-12-09T21:55:53.293Z,65.14
2018-12-09T21:58:21.618Z,65.50
2018-12-09T22:00:49.978Z,65.57
2018-12-09T22:03:18.274Z,65.25
2018-12-09T22:05:46.562Z,65.72
2018-12-09T22:08:14.887Z,66.12
2018-12-09T22:10:43.135Z,66.11
2018-12-09T22:13:11.389Z,66.46
2018-12-09T22:15:39.716Z,66.65
2018-12-09T22:18:08.088Z,66.67
2018-12-09T22:20:36.382Z,66.59
2018-12-09T22:23:04.706Z,66.05
2018-12-09T22:25:32.963Z,66.47
2018-12-09T22:28:01.250Z,65.94
2018-12-09T22:30:29.511Z,65.78
2018-12-09T22:33:00.711Z,66.11
2018-12-09T22:35:28.995Z,65.86
2018-12-09T22:37:57.234Z,65.98
2018-12-09T22:40:25.547Z,65.94
2018-12-09T22:42:53.754Z,65.88
2018-12-09T22:45:22.056Z,65.66
2018-12-09T22:47:50.328Z,65.55
2018-12-09T22:50:18.713Z,65.56
2018-12-09T22:52:47.111Z,65.49
2018-12-09T22:55:15.368Z,65.87
2018-12-09T23:00:38.113Z,65.06
2018-12-09T23:03:06.522Z,64.72
2018-12-09T23:05:34.895Z,64.63
2018-12-09T23:08:03.187Z,64.61
2018-12-09T23:10:31.483Z,64.37
2018-12-09T23:12:59.723Z,63.79
2018-12-09T23:15:28.014Z,63.27
2018-12-09T23:17:56.277Z,64.00
2018-12-09T23:20:24.491Z,63.49
2018-12-09T23:22:52.827Z,63.84
2018-12-09T23:25:21.092Z,64.04
2018-12-09T23:27:49.378Z,64.19
2018-12-09T23:30:17.688Z,64.68
2018-12-09T23:32:45.994Z,65.00
2018-12-09T23:35:14.321Z,65.30
2018-12-09T23:37:42.569Z,65.54
2018-12-09T23:40:10.843Z,66.00
2018-12-09T23:42:39.070Z,66.09
2018-12-09T23:45:07.533Z,66.73
2018-12-09T23:47:35.862Z,68.12
2018-12-09T23:52:57.361Z,69.02
2018-12-09T23:55:25.587Z,69.21
2018-12-09T23:57:53.825Z,69.46
